Chang-hua, Taiwan
Current Conditions -  °F | °C
As of 10:30 AM on Monday 22 Dec 2014 (Local Time) from RCMQ Reporting Station
Few Clouds Few Clouds  
Wind Chill: 59°   Ceiling: Unl
Heat Index: 59°   Visibility: 6mi
Dew Point: 37°   Wind: 23mph
Humidity: 45%   Direction: 20°NNE
Pressure: 30.18"   Gusts: 35mph
Location:  24.08°N, 120.53°E
Report Text: RCMQ 220230Z 02020G30KT 9999 FEW010 15/03 Q1022 RMK A3020
Loading
Personal Weather Stations






























Interactive Weather Map New forecast layout! Learn more

10-Day Weather Forecast

Advertisements
Track Severe Weather on mobile